Terminal Aerodrome Forecast
Issued by NWS

Home | Current Version | Previous Version | Text Only | Print | Product List | Glossary On
Versions: 1 2 3 4 5 6 7 8 9 10 11 12 13 14 15 16 17
000
FTUS42 KMHX 220621 AAA
TAFOAJ
TAF AMD
KOAJ 220621Z 2206/2306 32006KT P6SM SCT009 BKN060
      TEMPO 2206/2209 BKN009
     FM221200 36008KT P6SM SCT030
      AMD LTD TO CLD VIS AND WIND=

USA.gov is the U.S. government's official web portal to all federal, state and local government web resources and services.